Time;durP1;ratioP1;P1;durP2;ratioP2;P2;SDS_P1;SDS_P2;PMS_P1;PMS_P2;Temp;Humidity;BMP_temperature;BMP_pressure;BME280_temperature;BME280_humidity;BME280_pressure;Samples;Min_cycle;Max_cycle;Signal;HPM_P1;HPM_P2
2022/10/02 00:02:26;;;;;;;3.15;1.00;;;19.10;82.60;;;;;;4996117;28;20757;-85
2022/10/02 00:05:06;;;;;;;3.47;0.93;;;19.00;82.60;;;;;;4999301;28;20069;-85
2022/10/02 00:07:52;;;;;;;2.20;0.80;;;19.00;82.70;;;;;;5017139;28;20018;-86
2022/10/02 00:10:38;;;;;;;2.40;0.80;;;19.10;82.80;;;;;;4999317;28;20083;-85
2022/10/02 00:13:14;;;;;;;1.10;0.60;;;19.10;82.60;;;;;;4997686;28;20141;-87
2022/10/02 00:15:42;;;;;;;4.90;1.08;;;19.20;82.40;;;;;;4997991;28;20034;-85
2022/10/02 00:18:14;;;;;;;8.02;1.23;;;19.20;82.30;;;;;;4996726;28;20038;-86
2022/10/02 00:20:55;;;;;;;3.25;1.00;;;19.20;82.20;;;;;;5003349;28;20073;-86
2022/10/02 00:23:40;;;;;;;3.72;1.10;;;19.20;82.10;;;;;;5015938;28;20061;-87
2022/10/02 00:26:21;;;;;;;3.92;1.10;;;19.10;82.20;;;;;;4998541;28;20060;-86
2022/10/02 00:28:54;;;;;;;2.92;1.25;;;19.10;82.20;;;;;;4996102;28;20077;-85
2022/10/02 00:31:54;;;;;;;5.72;1.17;;;19.10;82.20;;;;;;4995895;28;20099;-85
2022/10/02 00:34:41;;;;;;;7.07;1.80;;;19.10;82.20;;;;;;4980072;28;20026;-85
2022/10/02 00:37:22;;;;;;;7.93;1.27;;;19.10;82.10;;;;;;4991135;28;20040;-85
2022/10/02 00:40:06;;;;;;;2.42;1.10;;;19.00;81.90;;;;;;5016019;28;20022;-86
2022/10/02 00:42:35;;;;;;;4.63;1.02;;;19.10;81.80;;;;;;5016130;28;20388;-85
2022/10/02 00:45:19;;;;;;;5.00;1.35;;;19.00;82.00;;;;;;5015893;28;20037;-86
2022/10/02 00:48:11;;;;;;;4.57;1.35;;;19.00;82.00;;;;;;4997022;28;20397;-86
2022/10/02 00:51:07;;;;;;;4.25;1.45;;;19.00;82.00;;;;;;4997290;28;20030;-85
2022/10/02 00:53:48;;;;;;;4.30;1.17;;;19.00;81.90;;;;;;4979455;28;20084;-86
2022/10/02 00:56:19;;;;;;;5.55;1.38;;;19.10;81.70;;;;;;4997582;28;20078;-86
2022/10/02 00:59:06;;;;;;;7.70;1.88;;;19.10;81.80;;;;;;4996697;28;20084;-87
2022/10/02 01:01:47;;;;;;;8.77;1.73;;;19.00;81.90;;;;;;4995356;28;20081;-86
2022/10/02 01:04:19;;;;;;;6.78;1.52;;;19.10;81.70;;;;;;4995347;28;20485;-86
2022/10/02 01:06:45;;;;;;;7.75;1.80;;;19.00;81.80;;;;;;5001939;28;20490;-86
2022/10/02 01:09:11;;;;;;;4.65;1.50;;;19.00;81.70;;;;;;5016234;28;20022;-87
2022/10/02 01:11:38;;;;;;;7.43;1.98;;;19.00;81.70;;;;;;4997828;28;20029;-87
2022/10/02 01:14:04;;;;;;;4.20;1.40;;;18.90;81.70;;;;;;5016626;28;20022;-87
2022/10/02 01:16:31;;;;;;;3.17;1.30;;;18.90;81.90;;;;;;5011163;28;20018;-85
2022/10/02 01:18:57;;;;;;;7.85;1.58;;;18.90;81.90;;;;;;4996297;28;20037;-86
2022/10/02 01:21:41;;;;;;;4.93;1.10;;;18.90;82.00;;;;;;4995402;28;20026;-86
2022/10/02 01:24:28;;;;;;;4.55;1.23;;;18.90;81.90;;;;;;5015345;28;20054;-88
2022/10/02 01:26:54;;;;;;;4.15;1.67;;;18.90;81.90;;;;;;5015887;28;20042;-87
2022/10/02 01:29:20;;;;;;;3.30;1.15;;;18.90;82.10;;;;;;4994744;28;20501;-87
2022/10/02 01:31:45;;;;;;;3.97;0.90;;;18.90;82.10;;;;;;4979334;28;20093;-86
2022/10/02 01:34:11;;;;;;;6.57;1.50;;;18.90;82.00;;;;;;4994754;28;20117;-87
2022/10/02 01:36:37;;;;;;;5.28;1.45;;;18.90;81.90;;;;;;4979078;28;20042;-86
2022/10/02 01:39:03;;;;;;;4.05;1.10;;;18.90;81.80;;;;;;4978113;28;20469;-87
2022/10/02 01:41:28;;;;;;;4.63;1.20;;;18.90;81.50;;;;;;4996202;28;20027;-86
2022/10/02 01:43:59;;;;;;;11.10;1.63;;;18.90;81.80;;;;;;4979838;28;20033;-86
2022/10/02 01:46:34;;;;;;;5.97;1.50;;;18.90;81.70;;;;;;4995747;28;20031;-86
2022/10/02 01:49:39;;;;;;;6.82;1.83;;;18.90;81.70;;;;;;4994888;28;20072;-85
2022/10/02 01:52:11;;;;;;;9.20;1.70;;;18.90;81.70;;;;;;4978668;28;20473;-87
2022/10/02 01:55:01;;;;;;;6.32;1.65;;;18.90;81.60;;;;;;4978505;28;20041;-87
2022/10/02 01:57:48;;;;;;;5.45;1.30;;;18.80;81.60;;;;;;4995978;28;20041;-87
2022/10/02 02:00:19;;;;;;;4.28;1.50;;;18.90;81.50;;;;;;4996700;28;20053;-86
2022/10/02 02:03:09;;;;;;;7.90;1.83;;;18.80;81.40;;;;;;4995645;28;20064;-87
2022/10/02 02:05:59;;;;;;;6.10;1.85;;;18.80;81.60;;;;;;4990280;28;20026;-86
2022/10/02 02:08:33;;;;;;;4.95;1.65;;;18.80;81.50;;;;;;5015390;28;20034;-87
2022/10/02 02:11:19;;;;;;;6.10;1.40;;;18.80;81.40;;;;;;4991089;28;20037;-86
2022/10/02 02:14:03;;;;;;;7.45;1.55;;;18.80;81.40;;;;;;4978133;28;20117;-86
2022/10/02 02:16:41;;;;;;;6.20;1.65;;;18.80;81.30;;;;;;4994853;28;20113;-86
2022/10/02 02:19:15;;;;;;;8.15;1.77;;;18.80;81.20;;;;;;5005153;28;20038;-85
2022/10/02 02:21:46;;;;;;;8.70;1.75;;;18.80;81.20;;;;;;5014347;28;20022;-86
2022/10/02 02:24:25;;;;;;;5.15;1.35;;;18.80;81.30;;;;;;5018438;28;20050;-86
2022/10/02 02:27:24;;;;;;;;;;;;;;;;;;;;;
2022/10/02 02:29:54;;;;;;;8.02;2.25;;;18.80;81.30;;;;;;5018704;28;20093;-87
2022/10/02 02:32:22;;;;;;;;;;;18.80;81.30;;;;;;5013205;28;20021;-87
2022/10/02 02:34:59;;;;;;;7.18;2.42;;;18.80;81.20;;;;;;4987368;28;19985;-86
2022/10/02 02:37:26;;;;;;;14.82;2.60;;;18.90;81.10;;;;;;4999340;28;20076;-87
2022/10/02 02:39:57;;;;;;;5.70;2.38;;;18.90;81.00;;;;;;5000012;28;20512;-86
2022/10/02 02:42:28;;;;;;;4.43;1.60;;;18.90;80.90;;;;;;5016494;28;20062;-87
2022/10/02 02:44:59;;;;;;;10.27;1.90;;;18.90;81.00;;;;;;5019227;28;20026;-86
2022/10/02 02:47:34;;;;;;;5.63;1.30;;;18.90;81.00;;;;;;5018913;28;20531;-87
2022/10/02 02:50:05;;;;;;;5.63;1.52;;;18.80;81.10;;;;;;5017238;28;20022;-86
2022/10/02 02:53:12;;;;;;;7.75;2.08;;;18.80;81.30;;;;;;5001066;28;20393;-86
2022/10/02 02:55:49;;;;;;;5.88;1.58;;;18.80;81.30;;;;;;4954334;28;20041;-86
2022/10/02 02:58:36;;;;;;;11.30;1.67;;;18.80;81.10;;;;;;5000952;28;20041;-86
2022/10/02 03:01:14;;;;;;;16.23;2.58;;;18.80;81.30;;;;;;5000961;28;20033;-86
2022/10/02 03:03:39;;;;;;;11.20;2.08;;;18.80;81.30;;;;;;5001037;28;20084;-85
2022/10/02 03:06:36;;;;;;;10.52;2.35;;;18.80;81.20;;;;;;5000893;28;20109;-87
2022/10/02 03:09:07;;;;;;;8.95;2.50;;;18.80;81.30;;;;;;5002750;28;20022;-85
2022/10/02 03:12:04;;;;;;;8.57;2.53;;;18.80;81.10;;;;;;4997134;28;20027;-86
2022/10/02 03:14:30;;;;;;;12.60;2.72;;;18.80;81.40;;;;;;4999102;28;20025;-86
2022/10/02 03:17:06;;;;;;;6.50;1.77;;;18.70;81.60;;;;;;4998992;28;20034;-87
2022/10/02 03:19:37;;;;;;;18.05;2.65;;;18.70;81.80;;;;;;5000034;28;20030;-86
2022/10/02 03:22:50;;;;;;;5.85;2.47;;;18.70;81.90;;;;;;5018053;28;20224;-86
2022/10/02 03:25:43;;;;;;;14.43;2.38;;;18.60;82.10;;;;;;4966963;28;20046;-85
2022/10/02 03:28:40;;;;;;;11.05;1.98;;;18.60;82.20;;;;;;4993930;28;20081;-87
2022/10/02 03:31:08;;;;;;;9.05;2.13;;;18.60;82.50;;;;;;4963668;28;20899;-86
2022/10/02 03:33:36;;;;;;;13.57;2.42;;;18.60;82.50;;;;;;4959406;28;20035;-87
2022/10/02 03:36:02;;;;;;;8.02;2.30;;;18.60;82.60;;;;;;4957738;28;20020;-86
2022/10/02 03:38:30;;;;;;;13.02;3.13;;;18.60;82.70;;;;;;4959553;28;20046;-86
2022/10/02 03:41:15;;;;;;;9.52;2.90;;;18.50;82.90;;;;;;4959443;28;20039;-86
2022/10/02 03:43:41;;;;;;;13.57;3.28;;;18.50;83.20;;;;;;4958616;29;20062;-87
2022/10/02 03:46:07;;;;;;;11.65;2.42;;;18.50;83.20;;;;;;4959252;28;20114;-86
2022/10/02 03:48:32;;;;;;;13.93;2.53;;;18.60;83.20;;;;;;4974219;28;20118;-86
2022/10/02 03:50:58;;;;;;;9.75;2.50;;;18.60;83.10;;;;;;4958745;28;20031;-85
2022/10/02 03:53:29;;;;;;;9.30;2.50;;;18.60;83.00;;;;;;4959406;28;20019;-86
2022/10/02 03:56:06;;;;;;;17.33;3.15;;;18.60;83.10;;;;;;4959156;28;20031;-85
2022/10/02 03:58:33;;;;;;;10.73;2.53;;;18.60;83.10;;;;;;4959936;28;20142;-86
2022/10/02 04:01:30;;;;;;;8.85;2.63;;;18.60;83.20;;;;;;4957825;29;20454;-85
2022/10/02 04:04:20;;;;;;;13.90;2.95;;;18.50;83.70;;;;;;4937216;28;20066;-86
2022/10/02 04:06:47;;;;;;;9.68;2.33;;;18.50;83.90;;;;;;4959273;28;20031;-86
2022/10/02 04:09:42;;;;;;;3.60;2.15;;;18.50;83.90;;;;;;4973243;28;20039;-86
2022/10/02 04:12:15;;;;;;;9.98;2.30;;;18.50;83.90;;;;;;4956309;28;20074;-86
2022/10/02 04:15:06;;;;;;;12.50;2.85;;;18.50;84.00;;;;;;4959188;28;20075;-87
2022/10/02 04:17:42;;;;;;;15.43;3.20;;;18.50;84.20;;;;;;4959401;28;20055;-86
2022/10/02 04:20:23;;;;;;;10.25;2.28;;;18.50;84.20;;;;;;4958875;28;20471;-85
2022/10/02 04:22:58;;;;;;;7.30;2.70;;;18.40;84.40;;;;;;4972071;28;20046;-86
2022/10/02 04:25:32;;;;;;;9.57;2.65;;;18.40;84.80;;;;;;4999069;28;20519;-86
2022/10/02 04:28:10;;;;;;;7.78;1.90;;;18.40;84.90;;;;;;5016693;28;20025;-86
2022/10/02 04:30:36;;;;;;;11.13;2.65;;;18.30;85.00;;;;;;4999362;28;20378;-86
2022/10/02 04:33:16;;;;;;;5.25;2.05;;;18.30;85.20;;;;;;5016872;28;20029;-86
2022/10/02 04:36:19;;;;;;;7.00;1.98;;;18.40;85.10;;;;;;4999377;28;20022;-87
2022/10/02 04:38:53;;;;;;;8.95;2.17;;;18.30;85.30;;;;;;5016468;28;20029;-85
2022/10/02 04:41:43;;;;;;;7.80;2.05;;;18.40;85.30;;;;;;5015724;28;20034;-87
2022/10/02 04:44:15;;;;;;;6.82;1.77;;;18.40;85.10;;;;;;5015958;28;20033;-87
2022/10/02 04:47:06;;;;;;;7.15;1.70;;;18.50;85.10;;;;;;5016356;28;20038;-87
2022/10/02 04:49:53;;;;;;;4.82;1.52;;;18.50;85.00;;;;;;5016856;28;20052;-86
2022/10/02 04:52:37;;;;;;;4.03;1.70;;;18.50;84.80;;;;;;5015916;28;20129;-86
2022/10/02 04:55:21;;;;;;;5.97;1.80;;;18.40;84.70;;;;;;5016720;28;20477;-85
2022/10/02 04:57:56;;;;;;;6.82;1.60;;;18.30;84.70;;;;;;5016107;28;20048;-87
2022/10/02 05:00:24;;;;;;;9.02;1.75;;;18.30;84.80;;;;;;5015793;28;20417;-86
2022/10/02 05:03:05;;;;;;;7.18;1.95;;;18.30;84.80;;;;;;4999322;28;20037;-86
2022/10/02 05:05:46;;;;;;;5.32;1.65;;;18.40;84.70;;;;;;5013838;28;20556;-86
2022/10/02 05:08:20;;;;;;;4.68;1.38;;;18.30;84.60;;;;;;5016932;28;20030;-85
2022/10/02 05:11:01;;;;;;;8.57;2.05;;;18.30;84.40;;;;;;4996724;28;20029;-87
2022/10/02 05:14:00;;;;;;;5.57;2.03;;;18.30;84.60;;;;;;5016809;28;20436;-86
2022/10/02 05:16:48;;;;;;;3.47;1.33;;;18.30;84.50;;;;;;4999025;28;20025;-86
2022/10/02 05:19:42;;;;;;;5.28;1.38;;;18.30;84.60;;;;;;4982476;28;20037;-86
2022/10/02 05:22:35;;;;;;;3.22;1.33;;;18.30;84.50;;;;;;4998663;28;20764;-85
2022/10/02 05:25:28;;;;;;;3.55;1.42;;;18.40;84.50;;;;;;5010629;28;20076;-87
2022/10/02 05:28:28;;;;;;;2.70;1.30;;;18.30;84.40;;;;;;4996804;28;20527;-86
2022/10/02 05:31:12;;;;;;;5.43;1.42;;;18.30;84.60;;;;;;4995140;28;20047;-86
2022/10/02 05:33:41;;;;;;;5.47;1.88;;;18.30;84.30;;;;;;4995730;28;20060;-86
2022/10/02 05:36:18;;;;;;;3.17;1.55;;;18.30;84.40;;;;;;4997774;28;20061;-85
2022/10/02 05:38:50;;;;;;;2.33;1.13;;;18.30;84.30;;;;;;5015961;28;20057;-86
2022/10/02 05:41:25;;;;;;;4.65;1.80;;;18.30;84.10;;;;;;4995771;28;20030;-86
2022/10/02 05:43:55;;;;;;;5.55;2.38;;;18.30;84.10;;;;;;4980232;28;20409;-86
2022/10/02 05:46:31;;;;;;;4.28;1.40;;;18.30;84.20;;;;;;5016064;28;20578;-85
2022/10/02 05:49:25;;;;;;;4.75;1.30;;;18.30;84.30;;;;;;4998737;28;20212;-85
2022/10/02 05:52:04;;;;;;;7.50;1.50;;;18.30;84.00;;;;;;5016212;28;20019;-87
2022/10/02 05:54:46;;;;;;;3.20;1.60;;;18.30;84.10;;;;;;5004962;28;20038;-85
2022/10/02 05:57:11;;;;;;;5.25;1.33;;;18.30;84.00;;;;;;4994975;28;20022;-86
2022/10/02 05:59:57;;;;;;;4.80;1.52;;;18.30;83.80;;;;;;5012668;28;20084;-85
2022/10/02 06:02:35;;;;;;;6.43;1.73;;;18.30;83.50;;;;;;5011222;28;20549;-85
2022/10/02 06:05:18;;;;;;;5.10;1.52;;;18.30;83.50;;;;;;4996158;28;20117;-85
2022/10/02 06:07:47;;;;;;;9.18;1.75;;;18.30;83.40;;;;;;4995288;28;20260;-83
2022/10/02 06:10:38;;;;;;;5.03;1.33;;;18.30;83.50;;;;;;5013580;28;20029;-86
2022/10/02 06:13:13;;;;;;;2.53;1.27;;;18.30;83.50;;;;;;4939305;28;20269;-85
2022/10/02 06:15:46;;;;;;;9.48;1.85;;;18.30;83.70;;;;;;4996194;28;20026;-85
2022/10/02 06:18:20;;;;;;;5.13;1.85;;;18.30;83.80;;;;;;5008777;28;20030;-87
2022/10/02 06:20:55;;;;;;;5.80;1.95;;;18.30;83.80;;;;;;4997700;28;20089;-82
2022/10/02 06:23:25;;;;;;;4.70;1.55;;;18.30;83.80;;;;;;5013522;28;20050;-83
2022/10/02 06:25:52;;;;;;;;;;;18.30;83.60;;;;;;5012536;28;20829;-80
2022/10/02 06:28:36;;;;;;;8.13;2.50;;;18.40;83.70;;;;;;4997891;28;19905;-77
2022/10/02 06:31:38;;;;;;;5.18;1.48;;;18.40;83.50;;;;;;5015607;28;20026;-78
2022/10/02 06:34:11;;;;;;;7.07;1.75;;;18.40;83.70;;;;;;5015292;28;20519;-80
2022/10/02 06:37:19;;;;;;;6.55;2.05;;;18.40;83.60;;;;;;4997512;28;20499;-78
2022/10/02 06:40:24;;;;;;;5.70;1.52;;;18.40;83.60;;;;;;5015666;28;20498;-79
2022/10/02 06:43:03;;;;;;;5.03;1.83;;;18.30;83.50;;;;;;4982133;28;20579;-81
2022/10/02 06:45:32;;;;;;;3.97;1.40;;;18.40;83.50;;;;;;4978114;28;20054;-82
2022/10/02 06:48:11;;;;;;;8.45;2.03;;;18.40;83.50;;;;;;4995507;28;20084;-81
2022/10/02 06:50:43;;;;;;;7.85;2.03;;;18.40;83.60;;;;;;4994531;28;20036;-77
2022/10/02 06:53:36;;;;;;;4.13;2.08;;;18.40;83.60;;;;;;4994878;28;20033;-78
2022/10/02 06:56:25;;;;;;;4.85;1.50;;;18.40;83.70;;;;;;4978334;28;20026;-78
2022/10/02 06:59:18;;;;;;;7.20;2.10;;;18.40;83.70;;;;;;5010470;28;20084;-84
2022/10/02 07:02:03;;;;;;;7.18;2.95;;;18.50;83.80;;;;;;5009084;28;20069;-80
2022/10/02 07:04:48;;;;;;;5.07;1.35;;;18.50;83.90;;;;;;5009987;28;20243;-81
2022/10/02 07:07:39;;;;;;;7.85;1.63;;;18.50;83.90;;;;;;4997464;28;20539;-80
2022/10/02 07:10:05;;;;;;;6.80;1.98;;;18.60;83.80;;;;;;5012212;28;20064;-80
2022/10/02 07:12:54;;;;;;;6.13;1.48;;;18.60;83.80;;;;;;5010404;28;20025;-79
2022/10/02 07:16:07;;;;;;;6.13;2.00;;;18.60;83.90;;;;;;4991692;28;20023;-82
2022/10/02 07:19:14;;;;;;;5.72;1.45;;;18.60;83.90;;;;;;4993195;28;20073;-80
2022/10/02 07:21:58;;;;;;;5.72;1.80;;;18.60;83.90;;;;;;4937337;29;20067;-87
2022/10/02 07:24:50;;;;;;;4.88;1.23;;;18.60;84.00;;;;;;5005550;28;20064;-83
2022/10/02 07:27:33;;;;;;;3.75;1.42;;;18.70;84.00;;;;;;5010079;28;20068;-79
2022/10/02 07:30:15;;;;;;;4.47;1.55;;;18.70;83.90;;;;;;5009778;28;20038;-79
2022/10/02 07:32:41;;;;;;;3.60;1.50;;;18.60;83.90;;;;;;5005698;28;20041;-82
2022/10/02 07:35:21;;;;;;;3.65;1.52;;;18.70;84.00;;;;;;5007441;28;20033;-78
2022/10/02 07:38:10;;;;;;;14.85;1.90;;;18.70;84.00;;;;;;5008384;28;20033;-83
2022/10/02 07:41:15;;;;;;;7.57;1.73;;;18.70;83.80;;;;;;5007822;28;20052;-83
2022/10/02 07:43:46;;;;;;;4.70;1.73;;;18.70;83.80;;;;;;5010674;28;20118;-86
2022/10/02 07:46:35;;;;;;;5.07;1.48;;;18.80;83.60;;;;;;5010049;28;20026;-79
2022/10/02 07:49:27;;;;;;;8.03;1.60;;;19.00;83.40;;;;;;4993819;28;20049;-81
2022/10/02 07:52:09;;;;;;;4.75;1.85;;;19.30;83.00;;;;;;4992578;28;20025;-81
2022/10/02 07:54:47;;;;;;;6.05;1.65;;;19.40;82.60;;;;;;5012305;28;20657;-82
2022/10/02 07:57:29;;;;;;;7.45;1.73;;;19.40;82.30;;;;;;5014522;28;20588;-80
2022/10/02 08:00:03;;;;;;;5.95;1.17;;;19.50;82.20;;;;;;5009174;28;20066;-82
2022/10/02 08:02:36;;;;;;;7.90;1.95;;;19.70;82.20;;;;;;5009646;28;20014;-81
2022/10/02 08:05:16;;;;;;;5.40;1.52;;;19.50;82.20;;;;;;5007775;28;20026;-82
2022/10/02 08:07:44;;;;;;;2.00;1.08;;;19.50;81.80;;;;;;4992932;28;20029;-78
2022/10/02 08:10:13;;;;;;;9.50;1.70;;;19.40;82.20;;;;;;5006007;28;20062;-78
2022/10/02 08:12:40;;;;;;;5.78;1.35;;;19.40;81.90;;;;;;5011027;28;20042;-80
2022/10/02 08:15:14;;;;;;;5.43;1.60;;;19.30;81.90;;;;;;4957652;28;20044;-79
2022/10/02 08:18:14;;;;;;;8.32;1.80;;;19.40;81.90;;;;;;5010880;28;20025;-78
2022/10/02 08:20:43;;;;;;;6.93;1.58;;;19.50;81.20;;;;;;4978358;28;20076;-81
2022/10/02 08:23:37;;;;;;;5.82;1.50;;;19.60;81.10;;;;;;4994617;28;20065;-79
2022/10/02 08:26:10;;;;;;;2.75;1.40;;;19.70;80.60;;;;;;5001995;28;20035;-79
2022/10/02 08:29:04;;;;;;;9.52;1.75;;;19.70;80.20;;;;;;5011553;28;20025;-89
2022/10/02 08:31:31;;;;;;;6.20;1.48;;;19.70;80.40;;;;;;4995399;28;20476;-81
2022/10/02 08:34:00;;;;;;;5.05;1.15;;;19.70;80.00;;;;;;5013434;28;20026;-80
2022/10/02 08:36:58;;;;;;;7.13;1.38;;;19.80;79.80;;;;;;5011563;28;20677;-82
2022/10/02 08:40:09;;;;;;;6.70;1.25;;;19.80;80.10;;;;;;5008470;28;20038;-80
2022/10/02 08:42:55;;;;;;;7.38;1.63;;;19.80;79.50;;;;;;5002560;28;20073;-80
2022/10/02 08:45:52;;;;;;;5.18;1.75;;;19.70;79.70;;;;;;4995259;28;20556;-80
2022/10/02 08:48:42;;;;;;;3.38;0.93;;;19.60;79.80;;;;;;5004344;28;20048;-81
2022/10/02 08:51:21;;;;;;;5.88;1.40;;;19.70;79.70;;;;;;5023138;28;20435;-83
2022/10/02 08:54:07;;;;;;;10.23;1.70;;;19.80;79.50;;;;;;5015867;28;20034;-77
2022/10/02 08:57:04;;;;;;;7.15;2.08;;;19.80;79.30;;;;;;5016136;28;20512;-78
2022/10/02 08:59:33;;;;;;;6.28;1.23;;;19.90;79.40;;;;;;4998702;28;20092;-79
2022/10/02 09:02:18;;;;;;;7.00;1.17;;;19.80;79.10;;;;;;5009229;28;20057;-78
2022/10/02 09:05:03;;;;;;;9.02;1.75;;;19.90;79.10;;;;;;4998707;28;20068;-78
2022/10/02 09:08:07;;;;;;;7.15;1.63;;;19.80;78.30;;;;;;5008785;28;20019;-81
2022/10/02 09:11:00;;;;;;;4.35;1.40;;;19.90;79.40;;;;;;4987623;28;20057;-85
2022/10/02 09:14:04;;;;;;;3.53;1.15;;;20.00;78.60;;;;;;4997934;28;20057;-90
2022/10/02 09:17:07;;;;;;;7.78;1.25;;;20.20;78.30;;;;;;4996058;28;20113;-84
2022/10/02 09:19:51;;;;;;;6.30;1.55;;;20.20;78.10;;;;;;5012796;28;20029;-80
2022/10/02 09:22:35;;;;;;;6.32;1.70;;;20.30;77.90;;;;;;5006516;28;20114;-82
2022/10/02 09:25:23;;;;;;;5.93;1.73;;;20.40;77.90;;;;;;5013873;28;20055;-85
2022/10/02 09:28:13;;;;;;;11.80;1.85;;;20.40;77.40;;;;;;5013697;28;20036;-83
2022/10/02 09:31:10;;;;;;;9.45;1.52;;;20.40;77.40;;;;;;5011719;28;20109;-78
2022/10/02 09:33:54;;;;;;;7.72;1.98;;;20.30;77.00;;;;;;4993696;28;20157;-79
2022/10/02 09:36:32;;;;;;;8.93;1.38;;;20.30;77.40;;;;;;5004606;28;20369;-81
2022/10/02 09:39:31;;;;;;;5.05;1.35;;;20.20;77.60;;;;;;5009201;28;20044;-80
2022/10/02 09:42:13;;;;;;;8.18;1.30;;;20.20;77.60;;;;;;5008519;28;20040;-90
2022/10/02 09:45:17;;;;;;;3.38;1.63;;;20.20;77.50;;;;;;5009053;28;20065;-89
2022/10/02 09:48:00;;;;;;;3.47;1.27;;;20.20;76.60;;;;;;4986956;28;20094;-87
2022/10/02 09:50:42;;;;;;;7.18;1.48;;;20.10;76.60;;;;;;4985062;28;20022;-87
2022/10/02 09:53:29;;;;;;;4.22;1.45;;;20.10;77.10;;;;;;5003860;28;20050;-86
2022/10/02 09:56:16;;;;;;;6.88;1.60;;;20.00;76.80;;;;;;5005280;28;20014;-89
2022/10/02 09:59:00;;;;;;;2.35;1.17;;;20.00;76.50;;;;;;5005903;28;20026;-89
2022/10/02 10:02:07;;;;;;;4.97;1.35;;;20.30;76.60;;;;;;5002831;28;20042;-87
2022/10/02 10:04:56;;;;;;;5.00;1.35;;;20.30;75.60;;;;;;4988255;28;20117;-88
2022/10/02 10:07:40;;;;;;;4.72;1.13;;;20.40;74.60;;;;;;4996269;28;20037;-89
2022/10/02 10:10:40;;;;;;;2.80;0.98;;;20.50;74.40;;;;;;5004478;28;20022;-88
2022/10/02 10:13:19;;;;;;;5.50;1.10;;;20.70;73.90;;;;;;4987272;28;20114;-89
2022/10/02 10:16:03;;;;;;;5.53;1.20;;;20.70;73.20;;;;;;4987172;28;20084;-90
2022/10/02 10:18:47;;;;;;;3.40;1.10;;;20.80;73.20;;;;;;5010479;28;20026;-92
2022/10/02 10:21:36;;;;;;;3.28;0.98;;;20.80;73.00;;;;;;5009158;28;20034;-88
2022/10/02 10:24:22;;;;;;;7.00;0.80;;;20.80;72.70;;;;;;5012421;28;20523;-88
2022/10/02 10:27:03;;;;;;;4.38;1.15;;;20.90;73.10;;;;;;5009754;28;20412;-89
2022/10/02 10:29:38;;;;;;;5.43;1.33;;;21.00;72.20;;;;;;5015080;28;20421;-88
2022/10/02 10:32:48;;;;;;;5.68;1.08;;;20.90;72.30;;;;;;4980845;28;20031;-86
2022/10/02 10:35:17;;;;;;;;;;;21.10;72.10;;;;;;4938556;28;20043;-87
2022/10/02 10:38:31;;;;;;;4.32;1.10;;;21.20;71.40;;;;;;5004724;28;19920;-89
2022/10/02 10:41:09;;;;;;;1.83;1.02;;;21.10;71.60;;;;;;5017136;28;20034;-88
2022/10/02 10:44:15;;;;;;;3.97;1.15;;;21.10;71.80;;;;;;5014546;28;20025;-89
2022/10/02 10:46:53;;;;;;;8.50;1.52;;;20.90;71.20;;;;;;4999729;28;20508;-87
2022/10/02 10:50:01;;;;;;;4.85;1.33;;;20.90;71.10;;;;;;5013492;28;20025;-87
2022/10/02 10:52:39;;;;;;;4.38;0.98;;;20.90;71.10;;;;;;5010731;28;20456;-90
2022/10/02 10:55:17;;;;;;;1.95;0.65;;;21.00;71.50;;;;;;4987121;28;20033;-85
2022/10/02 10:58:20;;;;;;;3.78;0.95;;;21.10;70.20;;;;;;4989939;28;20100;-88
2022/10/02 11:01:05;;;;;;;3.00;0.70;;;21.10;68.10;;;;;;5000390;28;20041;-87
2022/10/02 11:04:27;;;;;;;2.22;0.77;;;21.20;67.30;;;;;;4996853;28;20557;-93
2022/10/02 11:07:20;;;;;;;3.20;1.10;;;21.20;67.20;;;;;;4922907;29;20074;-89
2022/10/02 11:09:57;;;;;;;4.10;1.27;;;21.20;68.00;;;;;;4925555;29;20035;-89
2022/10/02 11:12:29;;;;;;;3.05;1.00;;;21.10;68.10;;;;;;4986696;28;20045;-88
2022/10/02 11:15:28;;;;;;;3.33;0.88;;;21.00;68.00;;;;;;5011860;28;20033;-87
2022/10/02 11:18:22;;;;;;;5.30;0.98;;;21.10;67.90;;;;;;5000559;28;20113;-88
2022/10/02 11:21:06;;;;;;;2.15;0.80;;;21.00;65.10;;;;;;5000876;28;20037;-89
2022/10/02 11:23:59;;;;;;;5.00;1.08;;;21.00;66.20;;;;;;4981859;28;20054;-90
2022/10/02 11:26:34;;;;;;;3.85;0.80;;;21.10;65.70;;;;;;4997297;28;20042;-91
2022/10/02 11:29:14;;;;;;;2.67;1.20;;;21.20;64.60;;;;;;4981340;28;20026;-89
2022/10/02 11:32:05;;;;;;;5.55;1.42;;;21.20;64.40;;;;;;4999188;28;20030;-91
2022/10/02 11:34:48;;;;;;;5.22;1.40;;;21.30;64.40;;;;;;4982013;28;20027;-89
2022/10/02 11:37:39;;;;;;;7.50;1.60;;;21.30;63.60;;;;;;5013982;28;20030;-91
2022/10/02 11:40:22;;;;;;;;;;;21.30;63.80;;;;;;5010534;28;20054;-90
2022/10/02 11:43:19;;;;;;;6.70;1.23;;;21.30;64.10;;;;;;4998266;28;19905;-91
2022/10/02 11:46:02;;;;;;;5.57;1.27;;;21.40;63.70;;;;;;5010477;28;20496;-90
2022/10/02 11:48:55;;;;;;;3.95;1.00;;;21.30;64.30;;;;;;5017467;28;20488;-91
2022/10/02 11:51:27;;;;;;;8.05;1.30;;;21.10;64.00;;;;;;5001084;28;20026;-90
2022/10/02 11:54:43;;;;;;;5.05;1.70;;;21.00;64.40;;;;;;5016530;28;20040;-90
2022/10/02 11:57:13;;;;;;;4.75;1.40;;;20.90;64.40;;;;;;4932740;28;20038;-89
2022/10/02 11:59:44;;;;;;;5.20;1.40;;;20.80;64.00;;;;;;5016368;28;20036;-91
2022/10/02 12:02:24;;;;;;;5.80;1.27;;;20.70;64.50;;;;;;5018568;28;20029;-91
2022/10/02 12:05:04;;;;;;;7.50;1.30;;;20.60;64.90;;;;;;4998580;28;20148;-90
2022/10/02 12:08:00;;;;;;;5.97;1.10;;;20.70;65.30;;;;;;4997442;28;20060;-89
2022/10/02 12:10:36;;;;;;;8.15;1.30;;;20.60;65.20;;;;;;5000353;28;20031;-92
2022/10/02 12:13:45;;;;;;;4.53;1.02;;;20.70;65.80;;;;;;4996850;28;20038;-90
2022/10/02 12:16:34;;;;;;;4.80;1.58;;;20.70;66.10;;;;;;4968327;28;20030;-91
2022/10/02 12:19:27;;;;;;;7.25;1.02;;;20.80;65.60;;;;;;4969726;28;20073;-91
2022/10/02 12:28:18;;;;;;;3.92;1.00;;;20.70;66.00;;;;;;5011339;28;20393;-90
2022/10/02 12:30:53;;;;;;;5.85;1.77;;;20.80;66.50;;;;;;5014612;28;20121;-90
2022/10/02 12:33:28;;;;;;;6.10;1.58;;;20.70;66.30;;;;;;4994080;28;20158;-90
2022/10/02 12:36:00;;;;;;;5.10;1.50;;;20.70;66.80;;;;;;4988925;28;20033;-91
2022/10/02 12:38:32;;;;;;;5.75;1.50;;;20.80;66.60;;;;;;4991381;28;20065;-91
2022/10/02 12:41:22;;;;;;;5.63;0.90;;;20.80;67.00;;;;;;4987493;28;20069;-89
2022/10/02 12:44:21;;;;;;;9.48;1.85;;;20.80;66.70;;;;;;5012381;28;20467;-91
2022/10/02 12:47:05;;;;;;;6.60;1.75;;;20.90;67.20;;;;;;4998317;28;20037;-90
2022/10/02 12:50:10;;;;;;;7.40;1.40;;;21.10;67.10;;;;;;4991868;28;20029;-92
2022/10/02 12:53:01;;;;;;;3.60;1.05;;;21.10;66.30;;;;;;4970560;28;20180;-90
2022/10/02 12:55:54;;;;;;;3.05;1.08;;;21.10;65.90;;;;;;5010617;28;20076;-90
2022/10/02 12:58:27;;;;;;;4.85;1.40;;;21.10;66.40;;;;;;5006889;28;20133;-89
2022/10/02 13:01:30;;;;;;;6.78;1.15;;;21.10;66.50;;;;;;4994402;28;20544;-90
2022/10/02 13:04:07;;;;;;;4.32;0.82;;;21.20;66.90;;;;;;4989008;28;20037;-90
2022/10/02 13:07:10;;;;;;;3.38;1.08;;;21.10;66.00;;;;;;5007612;28;20049;-88
2022/10/02 13:09:59;;;;;;;3.10;0.88;;;21.20;66.20;;;;;;4958265;28;20106;-90
2022/10/02 13:12:49;;;;;;;4.38;1.30;;;21.30;66.20;;;;;;5008360;28;20111;-89
2022/10/02 13:15:28;;;;;;;5.97;1.05;;;21.30;66.50;;;;;;4992080;28;20188;-90
2022/10/02 13:18:21;;;;;;;3.65;0.90;;;21.50;66.00;;;;;;5006991;28;20161;-90
2022/10/02 13:20:50;;;;;;;5.68;1.02;;;21.70;66.80;;;;;;4993498;28;20068;-88
2022/10/02 13:23:21;;;;;;;6.00;1.08;;;21.70;66.20;;;;;;4991457;28;20046;-89
2022/10/02 13:26:03;;;;;;;2.97;1.20;;;21.80;65.00;;;;;;4978658;28;20030;-91
2022/10/02 13:28:50;;;;;;;8.73;1.55;;;21.90;65.60;;;;;;4997483;28;20018;-91
2022/10/02 13:31:52;;;;;;;7.30;1.05;;;21.90;65.20;;;;;;4998297;28;20496;-90
2022/10/02 13:34:30;;;;;;;6.13;1.00;;;21.80;65.30;;;;;;4999171;28;20034;-89
2022/10/02 13:37:21;;;;;;;2.03;0.68;;;21.70;65.50;;;;;;4996658;28;20030;-89
2022/10/02 13:40:11;;;;;;;3.28;1.00;;;21.60;66.00;;;;;;4995548;28;20026;-90
2022/10/02 13:42:37;;;;;;;;;;;21.60;66.40;;;;;;4998570;28;20582;-90
2022/10/02 13:45:20;;;;;;;5.00;1.52;;;21.50;66.10;;;;;;5010159;28;19913;-88
2022/10/02 13:48:11;;;;;;;4.63;1.15;;;21.40;66.60;;;;;;4996790;28;20037;-90
2022/10/02 13:50:45;;;;;;;7.53;1.30;;;21.30;67.10;;;;;;5016473;28;20018;-90
2022/10/02 13:53:32;;;;;;;5.82;1.30;;;21.30;67.40;;;;;;4983973;28;20054;-90
2022/10/02 13:56:07;;;;;;;3.13;0.90;;;21.30;67.80;;;;;;4978974;28;20115;-89
2022/10/02 13:59:01;;;;;;;3.53;1.48;;;21.30;68.40;;;;;;4995208;28;20042;-91
2022/10/02 14:01:41;;;;;;;4.63;0.80;;;21.30;68.20;;;;;;4996302;28;20038;-91
2022/10/02 14:04:51;;;;;;;2.38;0.82;;;21.20;68.80;;;;;;5005427;28;20065;-88
2022/10/02 14:07:29;;;;;;;4.50;0.88;;;21.20;69.30;;;;;;5007961;28;20075;-89
2022/10/02 14:10:07;;;;;;;2.85;0.90;;;21.20;69.70;;;;;;5033434;28;20448;-89
2022/10/02 14:12:39;;;;;;;5.35;0.80;;;21.20;70.40;;;;;;5018711;28;20152;-90
2022/10/02 14:15:13;;;;;;;3.10;0.80;;;21.30;70.30;;;;;;4985882;28;20034;-89